createdAt,value
2019-05-22T00:00:23.452Z,98540.86
2019-05-22T00:02:53.518Z,98547.44
2019-05-22T00:05:34.765Z,98545.72
2019-05-22T00:08:05.548Z,98544.39
2019-05-22T00:10:34.872Z,98551.48
2019-05-22T00:13:06.188Z,98546.23
2019-05-22T00:15:38.621Z,98544.81
2019-05-22T00:18:07.776Z,98547.98
2019-05-22T00:20:37.340Z,98556.77
2019-05-22T00:23:10.987Z,98547.08
2019-05-22T00:25:41.155Z,98549.76
2019-05-22T00:28:10.555Z,98551.59
2019-05-22T00:30:41.453Z,98555.09
2019-05-22T00:33:11.906Z,98548.48
2019-05-22T00:35:42.331Z,98560.48
2019-05-22T00:38:11.796Z,98556.98
2019-05-22T00:40:42.768Z,98550.86
2019-05-22T00:43:14.557Z,98557.97
2019-05-22T00:45:46.094Z,98565.09
2019-05-22T00:48:16.575Z,98571.28
2019-05-22T00:50:53.687Z,98559.88
2019-05-22T00:53:43.166Z,98572.36
2019-05-22T00:56:16.498Z,98574.56
2019-05-22T00:58:49.323Z,98571.03
2019-05-22T01:01:22.325Z,98571.53
2019-05-22T01:03:52.915Z,98567.50
2019-05-22T01:06:22.891Z,98571.05
2019-05-22T01:08:52.737Z,98573.83
2019-05-22T01:11:24.151Z,98572.09
2019-05-22T01:13:54.467Z,98569.42
2019-05-22T01:16:24.954Z,98565.88
2019-05-22T01:18:54.033Z,98563.72
2019-05-22T01:21:24.779Z,98572.55
2019-05-22T01:23:55.913Z,98570.88
2019-05-22T01:26:26.100Z,98576.16
2019-05-22T01:28:56.047Z,98575.27
2019-05-22T01:31:33.408Z,98578.87
2019-05-22T01:34:06.042Z,98573.53
2019-05-22T01:36:36.676Z,98576.59
2019-05-22T01:39:13.086Z,98578.42
2019-05-22T01:41:44.583Z,98580.65
2019-05-22T01:44:14.358Z,98583.13
2019-05-22T01:46:45.428Z,98599.51
2019-05-22T01:49:14.023Z,98599.53
2019-05-22T01:51:44.687Z,98607.48
2019-05-22T01:54:13.206Z,98603.11
2019-05-22T01:56:43.107Z,98601.42
2019-05-22T01:59:12.566Z,98602.75
2019-05-22T02:01:42.211Z,98600.09
2019-05-22T02:04:14.769Z,98600.09
2019-05-22T02:06:43.557Z,98595.67
2019-05-22T02:09:33.894Z,98600.91
2019-05-22T02:12:28.059Z,98598.30
2019-05-22T02:14:57.958Z,98600.03
2019-05-22T02:17:34.086Z,98603.53
2019-05-22T02:20:06.683Z,98603.61
2019-05-22T02:22:39.113Z,98604.11
2019-05-22T02:25:08.602Z,98605.42
2019-05-22T02:27:39.132Z,98606.77
2019-05-22T02:30:09.499Z,98609.83
2019-05-22T02:32:39.138Z,98608.52
2019-05-22T02:35:09.266Z,98612.53
2019-05-22T02:37:39.272Z,98612.47
2019-05-22T02:40:16.360Z,98614.26
2019-05-22T02:42:46.456Z,98618.70
2019-05-22T02:45:16.514Z,98625.39
2019-05-22T02:47:46.949Z,98624.52
2019-05-22T02:50:16.933Z,98618.81
2019-05-22T02:52:47.412Z,98621.44
2019-05-22T02:55:16.844Z,98619.66
2019-05-22T02:57:46.658Z,98625.39
2019-05-22T03:00:16.858Z,98624.09
2019-05-22T03:02:50.383Z,98630.73
2019-05-22T03:05:21.016Z,98623.14
2019-05-22T03:07:50.294Z,98630.30
2019-05-22T03:10:20.550Z,98631.22
2019-05-22T03:12:51.040Z,98631.60
2019-05-22T03:15:23.938Z,98631.22
2019-05-22T03:17:59.927Z,98625.47
2019-05-22T03:20:29.775Z,98625.44
2019-05-22T03:23:04.544Z,98628.56
2019-05-22T03:25:34.075Z,98632.11
2019-05-22T03:28:04.704Z,98637.08
2019-05-22T03:30:37.130Z,98637.08
2019-05-22T03:33:08.457Z,98637.98
2019-05-22T03:35:44.510Z,98635.73
2019-05-22T03:38:13.552Z,98637.95
2019-05-22T03:40:42.963Z,98646.34
2019-05-22T03:43:27.152Z,98641.53
2019-05-22T03:45:59.003Z,98644.63
2019-05-22T03:48:30.800Z,98645.55
2019-05-22T03:51:08.909Z,98642.02
2019-05-22T03:53:38.361Z,98653.89
2019-05-22T03:56:07.008Z,98657.92
2019-05-22T03:58:36.244Z,98657.95
2019-05-22T04:01:06.734Z,98656.11
2019-05-22T04:03:36.060Z,98662.38
2019-05-22T04:06:06.272Z,98666.34
2019-05-22T04:08:37.059Z,98662.80
2019-05-22T04:11:08.049Z,98664.64
2019-05-22T04:13:36.716Z,98671.71
2019-05-22T04:16:08.266Z,98671.25
2019-05-22T04:18:39.318Z,98677.48
2019-05-22T04:21:07.974Z,98674.83
2019-05-22T04:23:38.421Z,98685.02
2019-05-22T04:26:09.642Z,98682.84
2019-05-22T04:28:51.170Z,98690.84
2019-05-22T04:31:20.605Z,98690.80
2019-05-22T04:33:49.237Z,98696.16
2019-05-22T04:36:18.345Z,98697.02
2019-05-22T04:38:46.860Z,98695.30
2019-05-22T04:41:16.929Z,98699.27
2019-05-22T04:43:45.990Z,98696.21
2019-05-22T04:46:14.571Z,98701.08
2019-05-22T04:48:46.102Z,98696.21
2019-05-22T04:51:24.156Z,98702.84
2019-05-22T04:53:54.023Z,98702.88
2019-05-22T04:56:23.955Z,98699.36
2019-05-22T04:58:53.462Z,98703.34
2019-05-22T05:01:22.467Z,98707.32
2019-05-22T05:03:51.084Z,98715.70
2019-05-22T05:06:21.592Z,98718.42
2019-05-22T05:08:51.378Z,98722.87
2019-05-22T05:11:20.983Z,98725.98
2019-05-22T05:13:49.772Z,98729.49
2019-05-22T05:16:18.931Z,98722.87
2019-05-22T05:18:47.492Z,98728.61
2019-05-22T05:21:16.556Z,98735.26
2019-05-22T05:23:45.064Z,98730.45
2019-05-22T05:26:14.238Z,98734.43
2019-05-22T05:28:43.524Z,98729.13
2019-05-22T05:31:13.537Z,98729.56
2019-05-22T05:34:04.546Z,98739.73
2019-05-22T05:36:33.021Z,98744.11
2019-05-22T05:39:01.823Z,98749.44
2019-05-22T05:41:31.190Z,98751.66
2019-05-22T05:44:00.457Z,98756.94
2019-05-22T05:46:29.579Z,98752.54
2019-05-22T05:48:58.303Z,98755.17
2019-05-22T05:51:29.124Z,98757.41
2019-05-22T05:54:03.937Z,98756.95
2019-05-22T05:56:33.845Z,98766.63
2019-05-22T05:59:05.616Z,98770.19
2019-05-22T06:01:40.564Z,98772.38
2019-05-22T06:04:10.048Z,98773.69
2019-05-22T06:06:44.607Z,98769.26
2019-05-22T06:09:21.923Z,98776.30
2019-05-22T06:11:56.150Z,98776.30
2019-05-22T06:14:29.562Z,98777.56
2019-05-22T06:17:36.015Z,98778.01
2019-05-22T06:20:11.925Z,98777.13
2019-05-22T06:22:42.982Z,98774.03
2019-05-22T06:25:14.390Z,98775.39
2019-05-22T06:27:49.193Z,98783.80
2019-05-22T06:30:21.342Z,98782.07
2019-05-22T06:33:10.975Z,98782.53
2019-05-22T06:35:40.505Z,98783.39
2019-05-22T06:38:27.592Z,98790.84
2019-05-22T06:40:56.087Z,98794.41
2019-05-22T06:43:31.492Z,98802.39
2019-05-22T06:46:00.015Z,98801.09
2019-05-22T06:48:28.630Z,98798.86
2019-05-22T06:50:58.092Z,98798.86
2019-05-22T06:53:26.616Z,98810.34
2019-05-22T06:55:55.406Z,98800.64
2019-05-22T06:58:23.944Z,98803.72
2019-05-22T07:00:52.502Z,98801.95
2019-05-22T07:03:22.224Z,98805.94
2019-05-22T07:05:51.880Z,98816.98
2019-05-22T07:08:20.612Z,98818.33
2019-05-22T07:10:49.286Z,98817.43
2019-05-22T07:13:20.067Z,98815.66
2019-05-22T07:15:48.762Z,98813.00
2019-05-22T07:18:19.887Z,98812.57
2019-05-22T07:20:50.373Z,98821.87
2019-05-22T07:23:21.650Z,98808.18
2019-05-22T07:25:52.085Z,98822.77
2019-05-22T07:28:22.758Z,98826.76
2019-05-22T07:30:52.861Z,98829.42
2019-05-22T07:33:23.041Z,98831.19
2019-05-22T07:36:08.726Z,98838.70
2019-05-22T07:38:23.509Z,98838.71
2019-05-22T07:40:53.134Z,98836.91
2019-05-22T07:43:22.513Z,98835.17
2019-05-22T07:45:52.915Z,98838.69
2019-05-22T07:48:24.415Z,98846.17
2019-05-22T07:50:55.490Z,98847.55
2019-05-22T07:53:26.499Z,98849.28
2019-05-22T07:55:57.851Z,98840.44
2019-05-22T07:58:29.804Z,98854.11
2019-05-22T08:01:02.193Z,98855.83
2019-05-22T08:03:33.395Z,98858.50
2019-05-22T08:06:03.261Z,98862.05
2019-05-22T08:08:33.262Z,98865.59
2019-05-22T08:11:04.106Z,98859.84
2019-05-22T08:13:33.721Z,98862.06
2019-05-22T08:16:03.601Z,98873.09
2019-05-22T08:18:34.201Z,98872.21
2019-05-22T08:21:03.718Z,98873.07
2019-05-22T08:23:33.635Z,98881.94
2019-05-22T08:26:02.215Z,98882.86
2019-05-22T08:28:32.510Z,98881.98
2019-05-22T08:31:03.419Z,98881.52
2019-05-22T08:33:35.449Z,98881.09
2019-05-22T08:36:05.514Z,98885.05
2019-05-22T08:38:36.181Z,98888.59
2019-05-22T08:41:08.845Z,98887.28
2019-05-22T08:44:03.423Z,98889.95
2019-05-22T08:46:10.023Z,98892.61
2019-05-22T08:48:47.416Z,98892.59
2019-05-22T08:51:12.551Z,98896.11
2019-05-22T08:53:47.322Z,98891.24
2019-05-22T08:56:13.969Z,98890.78
2019-05-22T08:58:44.264Z,98898.72
2019-05-22T09:01:13.734Z,98900.07
2019-05-22T09:03:42.319Z,98909.31
2019-05-22T09:06:11.709Z,98909.78
2019-05-22T09:08:40.933Z,98909.33
2019-05-22T09:11:09.964Z,98913.28
2019-05-22T09:13:39.037Z,98920.83
2019-05-22T09:16:08.611Z,98928.73
2019-05-22T09:18:38.217Z,98923.42
2019-05-22T09:21:07.816Z,98921.69
2019-05-22T09:23:37.166Z,98922.56
2019-05-22T09:26:07.353Z,98936.25
2019-05-22T09:28:36.182Z,98930.11
2019-05-22T09:31:05.726Z,98925.25
2019-05-22T09:33:36.741Z,98930.99
2019-05-22T09:36:05.787Z,98930.13
2019-05-22T09:38:34.773Z,98932.77
2019-05-22T09:41:03.840Z,98935.83
2019-05-22T09:43:32.695Z,98939.83
2019-05-22T09:46:02.719Z,98950.42
2019-05-22T09:48:32.897Z,98949.53
2019-05-22T09:51:01.651Z,98961.52
2019-05-22T09:53:31.464Z,98954.89
2019-05-22T09:56:00.059Z,98953.11
2019-05-22T09:58:29.166Z,98959.73
2019-05-22T10:00:57.753Z,98961.92
2019-05-22T10:03:26.811Z,98956.63
2019-05-22T10:05:55.625Z,98958.39
2019-05-22T10:08:25.175Z,98966.34
2019-05-22T10:10:53.849Z,98967.21
2019-05-22T10:13:22.573Z,98969.42
2019-05-22T10:15:51.741Z,98966.32
2019-05-22T10:18:20.819Z,98973.38
2019-05-22T10:20:49.556Z,98974.73
2019-05-22T10:23:19.012Z,98968.54
2019-05-22T10:25:47.698Z,98976.91
2019-05-22T10:28:17.082Z,98989.63
2019-05-22T10:30:45.636Z,98985.26
2019-05-22T10:33:14.309Z,98977.75
2019-05-22T10:35:43.258Z,98985.27
2019-05-22T10:38:12.463Z,98995.92
2019-05-22T10:40:41.321Z,98983.10
2019-05-22T10:43:09.894Z,98987.97
2019-05-22T10:45:38.778Z,98987.09
2019-05-22T10:48:07.227Z,98991.07
2019-05-22T10:50:36.654Z,98993.27
2019-05-22T10:53:05.475Z,98995.05
2019-05-22T10:55:35.935Z,98993.28
2019-05-22T10:58:05.660Z,98991.52
2019-05-22T11:00:34.416Z,98994.61
2019-05-22T11:03:03.623Z,98997.71
2019-05-22T11:05:33.807Z,98996.39
2019-05-22T11:08:02.841Z,99003.91
2019-05-22T11:10:31.357Z,99004.32
2019-05-22T11:13:00.785Z,99012.73
2019-05-22T11:15:30.982Z,99013.60
2019-05-22T11:17:59.682Z,99007.85
2019-05-22T11:20:29.013Z,99012.73
2019-05-22T11:22:57.933Z,99008.76
2019-05-22T11:25:27.018Z,99012.27
2019-05-22T11:27:55.766Z,99022.88
2019-05-22T11:30:24.903Z,99015.81
2019-05-22T11:32:53.945Z,99013.14
2019-05-22T11:35:23.923Z,99025.05
2019-05-22T11:37:52.980Z,99024.16
2019-05-22T11:40:22.860Z,99023.27
2019-05-22T11:42:53.603Z,99025.96
2019-05-22T11:45:23.921Z,99029.96
2019-05-22T11:47:53.778Z,99021.12
2019-05-22T11:50:23.662Z,99024.21
2019-05-22T11:52:52.195Z,99025.97
2019-05-22T11:55:21.914Z,99030.39
2019-05-22T11:57:52.021Z,99034.36
2019-05-22T12:00:23.174Z,99027.74
2019-05-22T12:02:52.656Z,99025.98
2019-05-22T12:05:22.033Z,99030.38
2019-05-22T12:07:51.594Z,99028.19
2019-05-22T12:10:22.366Z,99031.72
2019-05-22T12:12:53.606Z,99031.28
2019-05-22T12:15:26.710Z,99032.14
2019-05-22T12:17:55.664Z,99036.59
2019-05-22T12:20:26.270Z,99032.61
2019-05-22T12:22:55.675Z,99033.48
2019-05-22T12:25:25.883Z,99035.25
2019-05-22T12:27:55.212Z,99034.38
2019-05-22T12:30:25.165Z,99046.75
2019-05-22T12:32:54.337Z,99050.72
2019-05-22T12:35:24.066Z,99052.48
2019-05-22T12:37:53.899Z,99054.27
2019-05-22T12:40:22.851Z,99051.62
2019-05-22T12:42:53.139Z,99056.49
2019-05-22T12:45:28.923Z,99056.47
2019-05-22T12:47:59.367Z,99061.81
2019-05-22T12:50:31.881Z,99060.48
2019-05-22T12:53:03.521Z,99058.27
2019-05-22T12:55:32.444Z,99057.84
2019-05-22T12:58:02.263Z,99069.30
2019-05-22T13:00:31.457Z,99063.07
2019-05-22T13:03:02.167Z,99065.30
2019-05-22T13:05:32.630Z,99062.60
2019-05-22T13:08:02.190Z,99059.51
2019-05-22T13:10:31.335Z,99064.28
2019-05-22T13:12:59.918Z,99064.27
2019-05-22T13:15:28.556Z,99068.67
2019-05-22T13:17:59.607Z,99062.45
2019-05-22T13:20:42.566Z,99068.64
2019-05-22T13:23:04.707Z,99054.92
2019-05-22T13:25:36.594Z,99056.59
2019-05-22T13:28:07.233Z,99056.44
2019-05-22T13:30:39.313Z,99050.55
2019-05-22T13:33:11.393Z,99052.63
2019-05-22T13:35:41.919Z,99055.37
2019-05-22T13:38:13.046Z,99062.87
2019-05-22T13:40:43.924Z,99056.22
2019-05-22T13:43:12.655Z,99058.50
2019-05-22T13:45:41.563Z,99056.75
2019-05-22T13:48:10.150Z,99059.88
2019-05-22T13:50:39.386Z,99066.54
2019-05-22T13:53:11.930Z,99065.59
2019-05-22T13:55:41.226Z,99076.63
2019-05-22T13:58:11.985Z,99075.73
2019-05-22T14:00:41.959Z,99077.55
2019-05-22T14:03:11.385Z,99073.09
2019-05-22T14:05:42.283Z,99078.30
2019-05-22T14:08:12.173Z,99076.48
2019-05-22T14:10:41.261Z,99077.28
2019-05-22T14:13:09.995Z,99072.28
2019-05-22T14:15:50.587Z,99072.91
2019-05-22T14:18:09.595Z,99079.85
2019-05-22T14:20:38.584Z,99071.73
2019-05-22T14:23:07.416Z,99071.41
2019-05-22T14:25:36.454Z,99069.70
2019-05-22T14:28:06.743Z,99074.14
2019-05-22T14:30:35.502Z,99066.64
2019-05-22T14:33:05.499Z,99071.56
2019-05-22T14:35:47.590Z,99070.20
2019-05-22T14:38:09.322Z,99071.73
2019-05-22T14:40:38.678Z,99064.09
2019-05-22T14:43:08.144Z,99071.30
2019-05-22T14:45:37.989Z,99076.64
2019-05-22T14:48:06.712Z,99070.91
2019-05-22T14:50:35.938Z,99072.98
2019-05-22T14:53:04.628Z,99073.63
2019-05-22T14:55:35.154Z,99068.56
2019-05-22T14:58:05.441Z,99064.51
2019-05-22T15:00:34.693Z,99066.97
2019-05-22T15:03:03.818Z,99068.28
2019-05-22T15:05:32.854Z,99070.66
2019-05-22T15:08:01.452Z,99073.42
2019-05-22T15:10:31.352Z,99067.67
2019-05-22T15:13:00.363Z,99066.44
2019-05-22T15:15:29.349Z,99071.59
2019-05-22T15:17:58.889Z,99064.41
2019-05-22T15:20:32.926Z,99069.56
2019-05-22T15:23:01.568Z,99069.42
2019-05-22T15:25:30.312Z,99071.44
2019-05-22T15:28:00.180Z,99072.50
2019-05-22T15:30:29.301Z,99074.48
2019-05-22T15:32:57.968Z,99075.45
2019-05-22T15:35:26.993Z,99074.93
2019-05-22T15:37:55.962Z,99071.22
2019-05-22T15:40:25.288Z,99071.22
2019-05-22T15:42:54.338Z,99078.04
2019-05-22T15:45:30.252Z,99074.74
2019-05-22T15:48:02.690Z,99076.98
2019-05-22T15:50:34.453Z,99082.30
2019-05-22T15:53:13.553Z,99078.03
2019-05-22T15:55:42.609Z,99075.24
2019-05-22T15:58:13.712Z,99072.55
2019-05-22T16:00:44.965Z,99071.25
2019-05-22T16:03:16.985Z,99078.66
2019-05-22T16:05:46.286Z,99074.31
2019-05-22T16:08:16.489Z,99077.44
2019-05-22T16:10:48.268Z,99089.55
2019-05-22T16:13:21.310Z,99077.28
2019-05-22T16:15:54.886Z,99077.25
2019-05-22T16:18:29.460Z,99081.30
2019-05-22T16:21:02.251Z,99082.66
2019-05-22T16:23:33.451Z,99088.41
2019-05-22T16:26:05.285Z,99083.38
2019-05-22T16:28:36.454Z,99086.86
2019-05-22T16:31:08.524Z,99086.67
2019-05-22T16:33:38.066Z,99092.36
2019-05-22T16:36:08.323Z,99091.21
2019-05-22T16:38:39.525Z,99092.20
2019-05-22T16:41:08.856Z,99087.42
2019-05-22T16:43:48.703Z,99094.63
2019-05-22T16:46:11.354Z,99093.77
2019-05-22T16:48:42.248Z,99080.05
2019-05-22T16:51:13.246Z,99084.94
2019-05-22T16:53:43.537Z,99089.78
2019-05-22T16:56:12.226Z,99085.66
2019-05-22T16:58:41.111Z,99085.53
2019-05-22T17:01:10.820Z,99089.88
2019-05-22T17:03:40.405Z,99085.64
2019-05-22T17:06:09.109Z,99088.41
2019-05-22T17:08:37.614Z,99085.75
2019-05-22T17:11:07.766Z,99088.80
2019-05-22T17:13:36.858Z,99087.02
2019-05-22T17:16:07.047Z,99088.30
2019-05-22T17:18:46.880Z,99086.41
2019-05-22T17:21:07.962Z,99084.53
2019-05-22T17:23:36.534Z,99088.06
2019-05-22T17:26:05.818Z,99088.14
2019-05-22T17:28:34.714Z,99089.09
2019-05-22T17:31:04.294Z,99086.01
2019-05-22T17:33:34.197Z,99091.78
2019-05-22T17:36:05.724Z,99087.85
2019-05-22T17:38:34.343Z,99080.43
2019-05-22T17:41:03.925Z,99086.24
2019-05-22T17:43:33.925Z,99081.31
2019-05-22T17:46:04.227Z,99084.36
2019-05-22T17:48:34.940Z,99084.36
2019-05-22T17:51:05.099Z,99077.33
2019-05-22T17:53:36.031Z,99081.74
2019-05-22T17:56:05.590Z,99081.72
2019-05-22T17:58:34.167Z,99083.07
2019-05-22T18:01:04.750Z,99088.38
2019-05-22T18:03:33.752Z,99087.94
2019-05-22T18:06:02.853Z,99088.38
2019-05-22T18:08:32.371Z,99090.56
2019-05-22T18:11:03.887Z,99085.67
2019-05-22T18:13:34.576Z,99087.00
2019-05-22T18:16:04.752Z,99088.33
2019-05-22T18:18:33.810Z,99080.43
2019-05-22T18:21:02.365Z,99081.38
2019-05-22T18:23:32.192Z,99081.42
2019-05-22T18:26:00.694Z,99078.80
2019-05-22T18:28:29.340Z,99082.80
2019-05-22T18:30:58.148Z,99086.78
2019-05-22T18:33:26.711Z,99085.48
2019-05-22T18:35:55.516Z,99081.98
2019-05-22T18:38:24.578Z,99082.92
2019-05-22T18:40:53.145Z,99087.84
2019-05-22T18:43:23.093Z,99088.33
2019-05-22T18:45:52.321Z,99090.56
2019-05-22T18:48:21.018Z,99092.34
2019-05-22T18:50:50.515Z,99094.55
2019-05-22T18:53:19.036Z,99094.17
2019-05-22T18:55:47.710Z,99095.08
2019-05-22T18:58:16.416Z,99094.68
2019-05-22T19:00:45.564Z,99096.47
2019-05-22T19:03:14.153Z,99108.01
2019-05-22T19:05:43.977Z,99108.53
2019-05-22T19:08:12.633Z,99102.83
2019-05-22T19:10:41.366Z,99109.04
2019-05-22T19:13:09.919Z,99109.53
2019-05-22T19:15:38.903Z,99108.25
2019-05-22T19:18:07.501Z,99109.16
2019-05-22T19:20:36.245Z,99114.50
2019-05-22T19:23:05.302Z,99110.59
2019-05-22T19:25:34.899Z,99117.25
2019-05-22T19:28:04.319Z,99114.61
2019-05-22T19:30:33.519Z,99116.84
2019-05-22T19:33:02.365Z,99114.17
2019-05-22T19:35:30.960Z,99118.63
2019-05-22T19:38:01.140Z,99118.63
2019-05-22T19:40:29.935Z,99121.28
2019-05-22T19:42:58.750Z,99122.61
2019-05-22T19:45:30.871Z,99125.26
2019-05-22T19:47:58.832Z,99126.15
2019-05-22T19:50:29.072Z,99127.48
2019-05-22T19:52:57.659Z,99127.94
2019-05-22T19:55:28.472Z,99127.52
2019-05-22T19:57:58.238Z,99128.41
2019-05-22T20:00:28.194Z,99134.18
2019-05-22T20:03:00.625Z,99136.84
2019-05-22T20:05:30.212Z,99135.05
2019-05-22T20:07:59.412Z,99134.64
2019-05-22T20:10:28.143Z,99132.89
2019-05-22T20:12:57.355Z,99139.52
2019-05-22T20:15:26.336Z,99139.53
2019-05-22T20:17:55.496Z,99134.67
2019-05-22T20:20:26.025Z,99139.08
2019-05-22T20:22:55.250Z,99141.73
2019-05-22T20:25:25.815Z,99142.17
2019-05-22T20:27:56.709Z,99148.80
2019-05-22T20:30:27.091Z,99142.61
2019-05-22T20:32:56.396Z,99145.70
2019-05-22T20:35:25.128Z,99148.36
2019-05-22T20:37:54.136Z,99148.80
2019-05-22T20:40:24.022Z,99143.05
2019-05-22T20:42:53.705Z,99142.63
2019-05-22T20:45:24.739Z,99148.37
2019-05-22T20:48:09.758Z,99144.41
2019-05-22T20:50:39.490Z,99143.49
2019-05-22T20:53:11.096Z,99137.33
2019-05-22T20:55:42.641Z,99141.75
2019-05-22T20:58:14.302Z,99147.47
2019-05-22T21:00:43.586Z,99144.38
2019-05-22T21:03:13.449Z,99146.16
2019-05-22T21:05:43.541Z,99147.91
2019-05-22T21:08:13.629Z,99154.53
2019-05-22T21:10:44.587Z,99151.44
2019-05-22T21:13:15.060Z,99151.45
2019-05-22T21:15:44.888Z,99146.56
2019-05-22T21:18:14.593Z,99150.53
2019-05-22T21:20:54.289Z,99155.84
2019-05-22T21:23:16.863Z,99154.08
2019-05-22T21:25:45.783Z,99151.86
2019-05-22T21:28:14.539Z,99156.72
2019-05-22T21:30:43.597Z,99150.52
2019-05-22T21:33:14.936Z,99155.81
2019-05-22T21:35:44.261Z,99147.87
2019-05-22T21:38:13.888Z,99152.28
2019-05-22T21:40:42.855Z,99154.94
2019-05-22T21:43:12.463Z,99153.61
2019-05-22T21:45:42.155Z,99151.81
2019-05-22T21:48:11.314Z,99152.26
2019-05-22T21:50:40.967Z,99157.55
2019-05-22T21:53:30.775Z,99153.10
2019-05-22T21:56:04.972Z,99153.98
2019-05-22T21:58:30.475Z,99156.63
2019-05-22T22:01:06.297Z,99156.19
2019-05-22T22:03:51.654Z,99153.95
2019-05-22T22:06:21.381Z,99163.20
2019-05-22T22:08:50.320Z,99158.80
2019-05-22T22:11:20.749Z,99163.64
2019-05-22T22:13:57.672Z,99165.84
2019-05-22T22:16:29.270Z,99157.43
2019-05-22T22:18:57.956Z,99166.24
2019-05-22T22:21:27.282Z,99167.96
2019-05-22T22:23:56.333Z,99171.94
2019-05-22T22:26:26.768Z,99180.78
2019-05-22T22:28:56.115Z,99175.06
2019-05-22T22:31:26.205Z,99179.02
2019-05-22T22:33:57.856Z,99176.78
2019-05-22T22:36:27.649Z,99173.69
2019-05-22T22:38:57.049Z,99177.20
2019-05-22T22:41:26.554Z,99181.19
2019-05-22T22:43:58.681Z,99183.38
2019-05-22T22:46:29.593Z,99175.00
2019-05-22T22:48:59.968Z,99177.66
2019-05-22T22:51:30.198Z,99178.09
2019-05-22T22:53:59.185Z,99178.09
2019-05-22T22:56:29.188Z,99182.89
2019-05-22T22:58:58.408Z,99186.41
2019-05-22T23:01:31.130Z,99181.52
2019-05-22T23:04:02.142Z,99184.60
2019-05-22T23:06:31.674Z,99183.28
2019-05-22T23:09:00.818Z,99182.80
2019-05-22T23:11:30.862Z,99183.23
2019-05-22T23:14:00.938Z,99185.87
2019-05-22T23:16:53.422Z,99181.90
2019-05-22T23:19:34.515Z,99189.39
2019-05-22T23:22:03.326Z,99186.74
2019-05-22T23:24:41.713Z,99189.81
2019-05-22T23:27:13.614Z,99190.66
2019-05-22T23:29:42.370Z,99191.96
2019-05-22T23:32:12.458Z,99191.98
2019-05-22T23:34:41.473Z,99195.05
2019-05-22T23:37:10.895Z,99193.73
2019-05-22T23:39:39.734Z,99188.43
2019-05-22T23:42:12.704Z,99192.84
2019-05-22T23:44:42.128Z,99188.49
2019-05-22T23:47:11.440Z,99188.50
2019-05-22T23:49:41.672Z,99192.39
2019-05-22T23:52:12.306Z,99192.78
2019-05-22T23:54:41.620Z,99195.86
2019-05-22T23:57:11.008Z,99187.03
2019-05-22T23:59:42.056Z,99181.29
